Lake Tahoe, California
Current Conditions -  °F | °C
As of 10:53 AM on Friday 31 Oct 2014 (Local Time) from KTVL Reporting Station
Clear Clear  
Wind Chill: 57°   Ceiling: Unl
Heat Index: 57°   Visibility: 10mi
Dew Point: 25°   Wind: 29mph
Humidity: 29%   Direction: 180°S
Pressure: 29.89"   Gusts: 37mph
Location:  38.9°N, 120°W
Report Text: KTVL 311753Z AUTO 18025G32KT 10SM CLR 14/M04 A2989 RMK AO2 PK WND 17034/1720 SLP076 60000 T01391039 10139 20089 58000
Loading
Personal Weather Stations






























Interactive Weather Map New forecast layout! Learn more

10-Day Weather Forecast

Advertisements
Track Severe Weather on mobile